Portada
METAR-TAF:

METAR-TAF

Aeroports :

Wangaratta, Austràlia

latitud: 36-24-57S, longitud: 146-18-25E, altitud: 154 m

Observació

L'informe es va fer fa 23 minuts, a les 16:00 UTC
Vent calma
Temperatura 10°C
Humitat 66%
Pressió 1024 hPa
Visibilitat 10 km o més

METAR: YWGT 191600Z AUTO 00000KT 9999 // NCD 10/04 Q1024

Hora: 02:23 (16:23 UTC)

Pronòstic

L'informe es va fer fa 15 hores i 14 minuts, a les 01:09 UTC
Pronòstic vàlid del 19 a les 02 UTC al 19 a les 14 UTC
Vent 6 kt del Nord
Visibilitat 10 km o més
sense núvols per sota de 1500 mi sense presència de cumulonimbus.
A partir de les 19 a les 0500 UTC
Vent 5 kt amb direcció variable
Visibilitat 10 km o més
sense núvols per sota de 1500 mi sense presència de cumulonimbus.

TAF: YWGT 190109Z 1902/1914 36006KT CAVOK FM190500 VRB05KT CAVOK

Observacions i pronòstics meteorològics de més de 4000 aeroports (METAR i TAF).

Les estacions disponibles són els punts grocs i vermells al mapa.

Posi el ratolí al punt desitjat per veure el nom de l'estació.

Feu clic per veure les observacions i els pronòstics meteorològics.

Per canviar el mapa: feu clic els botons verds amb una creu de color negre per apropar; al botó verd amb un guió per allunyar la imatge; o en les fletxes verdes per a mapes adjacents.


METAR-TAF: